East Waterford, Pennsylvania
Current Conditions -  °F | °C
As of 9:53 AM on Thursday 30 Oct 2014 (Local Time) from KUNV Reporting Station
Overcast Overcast  
Wind Chill: 40°   Ceiling: 3300
Heat Index: 45°   Visibility: 10mi
Dew Point: 37°   Wind: 9mph
Humidity: 76%   Direction: 270°W
Pressure: 30.06"   Gusts: NA
Location:  40.37°N, 77.6°W
Report Text: KUNV 301353Z 27008KT 10SM SCT027 OVC033 07/03 A3006
Loading
Personal Weather Stations






























Interactive Weather Map New forecast layout! Learn more

10-Day Weather Forecast

Advertisements
Track Severe Weather on mobile